Time;durP1;ratioP1;P1;durP2;ratioP2;P2;SDS_P1;SDS_P2;PMS_P1;PMS_P2;Temp;Humidity;BMP_temperature;BMP_pressure;BME280_temperature;BME280_humidity;BME280_pressure;Samples;Min_cycle;Max_cycle;Signal;HPM_P1;HPM_P2
2023/03/11 00:02:15;;;;;;;0.98;0.30;;;0.60;17.00;;;;;;25765333;22;20020;-41
2023/03/11 00:12:16;;;;;;;2.17;0.63;;;0.60;9.60;;;;;;25778114;23;20016;-41
2023/03/11 00:22:18;;;;;;;2.08;1.10;;;0.50;13.50;;;;;;25776350;23;20016;-42
2023/03/11 00:32:19;;;;;;;1.00;0.28;;;0.40;18.70;;;;;;25780859;23;20008;-42
2023/03/11 00:42:20;;;;;;;1.95;0.57;;;0.40;25.00;;;;;;25780667;23;20016;-42
2023/03/11 00:52:21;;;;;;;0.55;0.17;;;0.30;32.40;;;;;;25781764;23;20008;-42
2023/03/11 01:02:23;;;;;;;0.55;0.20;;;0.10;37.80;;;;;;25782097;23;20655;-42
2023/03/11 01:12:24;;;;;;;2.55;0.73;;;0.10;45.50;;;;;;25779407;23;20000;-42
2023/03/11 01:22:25;;;;;;;1.42;0.47;;;0.10;48.70;;;;;;25776544;22;20434;-42
2023/03/11 01:32:26;;;;;;;0.70;0.20;;;0.10;55.90;;;;;;25781085;23;20018;-42
2023/03/11 01:42:27;;;;;;;1.20;0.30;;;0.00;62.50;;;;;;25773806;23;20020;-43
2023/03/11 01:52:29;;;;;;;0.57;0.25;;;0.00;68.70;;;;;;25777349;23;20012;-43
2023/03/11 02:02:36;;;;;;;1.42;0.65;;;-0.10;76.80;;;;;;25780006;23;20429;-42
2023/03/11 02:12:37;;;;;;;0.35;0.17;;;-0.10;83.00;;;;;;25773263;22;20334;-43
2023/03/11 02:22:41;;;;;;;1.92;0.40;;;-0.20;87.50;;;;;;25783195;23;20000;-43
2023/03/11 02:32:46;;;;;;;1.83;0.55;;;-0.20;94.10;;;;;;25753236;22;20016;-43
2023/03/11 02:42:49;;;;;;;2.22;0.90;;;-0.30;95.30;;;;;;25780381;22;20034;-43
2023/03/11 02:52:51;;;;;;;1.17;0.50;;;-0.40;97.20;;;;;;25773781;23;20023;-43
2023/03/11 03:02:52;;;;;;;1.13;0.38;;;-0.40;99.30;;;;;;25781407;23;20020;-43
2023/03/11 03:12:53;;;;;;;0.90;0.50;;;-0.50;99.90;;;;;;25776770;23;20008;-43
2023/03/11 03:22:54;;;;;;;1.95;0.30;;;-0.50;99.90;;;;;;25770284;23;20022;-43
2023/03/11 03:32:56;;;;;;;1.40;0.50;;;-0.60;99.70;;;;;;25768672;22;20011;-43
2023/03/11 03:42:57;;;;;;;2.03;0.90;;;-0.60;99.90;;;;;;25766770;23;20457;-43
2023/03/11 03:52:58;;;;;;;3.00;0.70;;;-0.70;99.90;;;;;;25764131;23;20062;-43
2023/03/11 04:02:59;;;;;;;2.78;0.55;;;-0.70;99.90;;;;;;25763949;22;20245;-43
2023/03/11 04:13:00;;;;;;;1.50;0.70;;;-0.80;99.90;;;;;;25761260;22;20068;-42
2023/03/11 04:23:01;;;;;;;2.88;0.47;;;-0.80;99.90;;;;;;25761541;23;20025;-43
2023/03/11 04:33:03;;;;;;;0.68;0.30;;;-0.90;99.90;;;;;;25765785;23;20026;-43
2023/03/11 04:43:04;;;;;;;1.15;0.30;;;-0.90;99.90;;;;;;25763131;23;20028;-42
2023/03/11 04:53:05;;;;;;;1.20;0.50;;;-0.90;99.70;;;;;;25763505;23;20020;-43
2023/03/11 05:03:06;;;;;;;0.65;0.28;;;-0.90;97.40;;;;;;25767063;23;20020;-43
2023/03/11 05:13:07;;;;;;;0.80;0.28;;;-1.00;94.80;;;;;;25767674;23;20012;-43
2023/03/11 05:23:08;;;;;;;2.00;0.30;;;-1.00;94.20;;;;;;25773715;23;20054;-43
2023/03/11 05:33:10;;;;;;;0.90;0.38;;;-1.10;93.10;;;;;;25771338;23;20008;-43
2023/03/11 05:43:11;;;;;;;1.60;0.60;;;-1.10;95.30;;;;;;25768086;23;20020;-43
2023/03/11 05:53:12;;;;;;;1.88;0.98;;;-1.10;94.50;;;;;;25776409;23;20012;-43
2023/03/11 06:03:13;;;;;;;1.55;0.70;;;-1.20;92.00;;;;;;25771411;23;20426;-42
2023/03/11 06:13:14;;;;;;;1.60;0.77;;;-1.20;89.30;;;;;;25783906;23;20023;-43
2023/03/11 06:23:15;;;;;;;1.15;0.40;;;-1.20;90.20;;;;;;25787992;23;20015;-42
2023/03/11 06:33:16;;;;;;;0.93;0.35;;;-1.20;86.00;;;;;;25759803;23;20020;-42
2023/03/11 06:43:17;;;;;;;2.28;0.47;;;-1.30;91.70;;;;;;25755384;23;20362;-43
2023/03/11 06:53:18;;;;;;;1.00;0.40;;;-1.10;94.40;;;;;;25770835;23;20008;-42
2023/03/11 07:03:19;;;;;;;2.17;0.63;;;-1.00;91.60;;;;;;25769925;23;20016;-43
2023/03/11 07:13:20;;;;;;;1.23;0.43;;;-1.00;90.20;;;;;;25779796;23;20008;-43
2023/03/11 07:23:21;;;;;;;3.30;1.63;;;-1.00;96.10;;;;;;25773384;23;20469;-43
2023/03/11 07:33:23;;;;;;;4.38;1.40;;;-0.90;99.90;;;;;;25739830;23;20466;-43
2023/03/11 07:43:24;;;;;;;3.05;1.25;;;-0.70;99.90;;;;;;25745740;23;20031;-43
2023/03/11 07:53:25;;;;;;;3.13;1.77;;;-0.30;99.90;;;;;;25747565;23;20453;-43
2023/03/11 08:03:26;;;;;;;2.38;0.77;;;0.20;99.90;;;;;;25777063;23;20028;-43
2023/03/11 08:13:27;;;;;;;1.30;0.80;;;0.60;99.90;;;;;;25766936;23;20012;-42
2023/03/11 08:23:28;;;;;;;1.23;0.50;;;1.20;64.00;;;;;;25774260;22;20016;-43
2023/03/11 08:33:29;;;;;;;0.50;0.20;;;1.70;35.50;;;;;;25757744;22;20016;-43
2023/03/11 08:43:30;;;;;;;13.15;1.20;;;2.10;11.20;;;;;;25772342;23;20489;-42
2023/03/11 08:53:31;;;;;;;0.82;0.40;;;2.70;1.00;;;;;;25761304;22;20337;-42
2023/03/11 09:03:34;;;;;;;1.25;0.50;;;3.00;1.00;;;;;;25787453;22;20012;-43
2023/03/11 09:13:35;;;;;;;0.45;0.20;;;3.40;1.00;;;;;;25787129;23;20015;-43
2023/03/11 09:23:36;;;;;;;2.58;0.28;;;4.00;1.00;;;;;;25790302;23;20028;-43
2023/03/11 09:33:40;;;;;;;0.43;0.13;;;4.10;1.00;;;;;;25789602;23;20091;-42
2023/03/11 09:43:59;;;;;;;0.95;0.25;;;4.40;1.00;;;;;;25786794;23;20410;-43
2023/03/11 09:54:08;;;;;;;1.00;0.50;;;4.80;1.00;;;;;;25773098;23;21430;-42
2023/03/11 10:04:22;;;;;;;3.17;0.55;;;4.90;1.00;;;;;;25722989;23;20074;-42
2023/03/11 10:14:46;;;;;;;0.77;0.20;;;5.00;1.00;;;;;;25770296;23;20024;-42
2023/03/11 10:24:51;;;;;;;1.85;1.00;;;5.10;1.00;;;;;;25769034;23;20035;-42
2023/03/11 10:34:52;;;;;;;0.80;0.45;;;5.10;1.00;;;;;;25754098;23;20381;-42
2023/03/11 10:44:53;;;;;;;1.20;0.40;;;4.80;1.00;;;;;;25768407;23;20385;-43
2023/03/11 10:55:01;;;;;;;4.65;0.70;;;5.00;1.00;;;;;;25765091;23;20022;-42
2023/03/11 11:05:26;;;;;;;1.02;0.50;;;5.90;1.00;;;;;;25768129;23;20016;-42
2023/03/11 11:15:30;;;;;;;1.08;0.40;;;6.70;1.00;;;;;;25771187;23;20016;-42
2023/03/11 11:25:34;;;;;;;2.88;0.40;;;7.30;1.00;;;;;;25779212;23;20058;-42
2023/03/11 11:35:50;;;;;;;0.95;0.40;;;7.60;1.00;;;;;;25784138;22;20083;-42
2023/03/11 11:45:59;;;;;;;3.15;0.55;;;8.30;1.00;;;;;;25786226;23;20528;-42
2023/03/11 11:56:00;;;;;;;2.70;0.73;;;8.70;1.00;;;;;;25767749;23;20067;-41
2023/03/11 12:06:17;;;;;;;0.73;0.40;;;8.70;1.00;;;;;;25768780;22;20107;-41
2023/03/11 12:16:49;;;;;;;0.90;0.30;;;9.10;1.00;;;;;;25765458;23;20352;-41
2023/03/11 12:26:53;;;;;;;1.33;0.30;;;9.00;1.00;;;;;;25775808;23;20518;-41
2023/03/11 12:36:58;;;;;;;2.15;0.13;;;9.90;1.00;;;;;;25796553;23;20107;-41
2023/03/11 12:47:03;;;;;;;0.40;0.20;;;10.00;1.00;;;;;;25782438;23;20016;-41
2023/03/11 12:57:33;;;;;;;1.33;0.30;;;10.10;1.00;;;;;;25792869;22;20038;-41
2023/03/11 13:07:49;;;;;;;2.35;0.65;;;10.50;1.00;;;;;;25785801;22;20496;-41
2023/03/11 13:18:04;;;;;;;0.47;0.15;;;10.60;1.00;;;;;;25789837;23;20378;-41
2023/03/11 13:28:37;;;;;;;1.30;0.43;;;11.60;1.00;;;;;;25731441;23;20103;-41
2023/03/11 13:38:55;;;;;;;0.55;0.10;;;11.10;1.00;;;;;;25763179;23;20048;-41
2023/03/11 13:49:19;;;;;;;;;;;11.20;1.00;;;;;;25754931;22;20251;-41
2023/03/11 13:59:26;;;;;;;0.68;0.30;;;10.70;1.00;;;;;;25723605;23;20497;-41
2023/03/11 14:09:28;;;;;;;1.20;0.53;;;9.70;1.00;;;;;;25762475;23;20395;-42
2023/03/11 14:19:29;;;;;;;0.73;0.20;;;10.70;1.00;;;;;;25759629;23;20458;-42
2023/03/11 14:29:33;;;;;;;1.88;0.93;;;10.70;1.00;;;;;;25739114;23;20016;-42
2023/03/11 14:39:36;;;;;;;1.30;0.25;;;11.40;1.00;;;;;;25766103;23;20020;-41
2023/03/11 14:49:38;;;;;;;0.50;0.30;;;10.60;1.00;;;;;;25745394;23;20070;-41
2023/03/11 14:59:40;;;;;;;3.03;0.60;;;10.30;1.00;;;;;;25754071;23;20012;-41
2023/03/11 15:09:41;;;;;;;0.52;0.15;;;9.90;1.00;;;;;;25759218;23;20016;-41
2023/03/11 15:19:43;;;;;;;0.50;0.30;;;9.10;1.00;;;;;;25762904;23;20046;-42
2023/03/11 15:29:53;;;;;;;1.00;0.40;;;8.80;1.00;;;;;;25747678;23;20385;-41
2023/03/11 15:40:19;;;;;;;1.08;0.20;;;9.00;1.00;;;;;;25755252;23;20372;-41
2023/03/11 15:50:26;;;;;;;3.28;0.30;;;8.80;1.00;;;;;;25749533;23;20016;-42
2023/03/11 16:00:27;;;;;;;0.27;0.10;;;8.30;1.00;;;;;;25762380;23;20012;-42
2023/03/11 16:10:28;;;;;;;0.40;0.20;;;8.00;1.00;;;;;;25780335;23;20586;-42
2023/03/11 16:20:42;;;;;;;1.05;0.65;;;7.80;1.00;;;;;;25777325;23;20019;-42
2023/03/11 16:30:43;;;;;;;0.22;0.13;;;7.40;1.00;;;;;;25781699;23;20012;-41
2023/03/11 16:40:53;;;;;;;0.82;0.30;;;7.20;1.00;;;;;;25782736;22;20323;-42
2023/03/11 16:50:54;;;;;;;0.95;0.20;;;7.10;1.00;;;;;;25756955;23;20016;-41
2023/03/11 17:00:55;;;;;;;1.45;0.47;;;6.90;1.00;;;;;;25732963;23;20008;-42
2023/03/11 17:10:57;;;;;;;1.20;0.20;;;6.70;1.00;;;;;;25760367;23;20015;-42
2023/03/11 17:21:00;;;;;;;0.93;0.30;;;6.40;1.00;;;;;;25763150;22;20012;-42
2023/03/11 17:31:01;;;;;;;0.70;0.28;;;6.10;1.00;;;;;;25770665;22;20022;-42
2023/03/11 17:41:10;;;;;;;1.40;0.70;;;6.00;1.00;;;;;;25765747;23;20031;-42
2023/03/11 17:51:17;;;;;;;3.60;1.58;;;5.60;1.00;;;;;;25772560;23;20012;-42
2023/03/11 18:01:21;;;;;;;4.00;0.95;;;5.20;1.00;;;;;;25768381;23;20336;-42
2023/03/11 18:11:24;;;;;;;1.50;0.63;;;5.00;1.00;;;;;;25780205;23;20126;-42
2023/03/11 18:21:28;;;;;;;2.15;1.27;;;4.60;1.00;;;;;;25770976;23;20000;-42
2023/03/11 18:31:29;;;;;;;4.90;2.15;;;4.60;1.00;;;;;;25771770;23;20035;-42
2023/03/11 18:41:33;;;;;;;3.20;1.40;;;4.50;1.00;;;;;;25779468;22;20357;-42
2023/03/11 18:51:34;;;;;;;3.25;1.77;;;4.40;1.00;;;;;;25776976;23;20018;-42
2023/03/11 19:01:35;;;;;;;3.33;0.95;;;4.30;1.00;;;;;;25759367;23;20361;-42
2023/03/11 19:11:36;;;;;;;4.88;1.13;;;4.40;1.00;;;;;;25772354;23;20016;-42
2023/03/11 19:21:39;;;;;;;4.05;1.75;;;4.20;1.00;;;;;;25728673;22;20012;-42
2023/03/11 19:31:42;;;;;;;2.85;1.65;;;4.10;1.00;;;;;;25755460;23;20020;-42
2023/03/11 19:41:43;;;;;;;4.90;1.63;;;3.90;1.00;;;;;;25755108;22;20027;-42
2023/03/11 19:51:44;;;;;;;7.55;2.75;;;3.90;1.00;;;;;;25764776;23;20410;-42
2023/03/11 20:01:45;;;;;;;4.45;2.53;;;3.70;1.00;;;;;;25762961;23;20008;-42
2023/03/11 20:11:46;;;;;;;5.70;2.13;;;3.70;1.00;;;;;;25768234;23;20410;-42
2023/03/11 20:21:47;;;;;;;12.05;4.05;;;3.50;1.00;;;;;;25766374;23;20019;-42
2023/03/11 20:31:49;;;;;;;6.93;4.68;;;3.50;1.00;;;;;;25770953;23;20054;-42
2023/03/11 20:41:50;;;;;;;6.90;3.28;;;3.50;1.00;;;;;;25773421;23;20016;-42
2023/03/11 20:51:51;;;;;;;6.15;3.50;;;3.50;1.00;;;;;;25762908;23;20544;-42
2023/03/11 21:01:52;;;;;;;4.97;3.15;;;3.40;1.00;;;;;;25772383;22;20449;-42
2023/03/11 21:11:53;;;;;;;6.00;3.28;;;3.40;1.00;;;;;;25777173;22;20360;-42
2023/03/11 21:21:54;;;;;;;10.77;3.38;;;3.30;1.00;;;;;;25771510;23;20012;-42
2023/03/11 21:31:55;;;;;;;11.15;5.43;;;3.40;1.00;;;;;;25760319;23;20019;-43
2023/03/11 21:41:56;;;;;;;9.40;4.75;;;3.40;1.00;;;;;;25779567;23;20023;-42
2023/03/11 21:51:57;;;;;;;10.60;4.95;;;3.30;1.00;;;;;;25767822;23;20020;-42
2023/03/11 22:02:01;;;;;;;7.88;4.22;;;3.30;1.00;;;;;;25769509;23;20016;-42
2023/03/11 22:12:02;;;;;;;6.20;3.40;;;3.30;1.00;;;;;;25767197;22;20020;-43
2023/03/11 22:22:04;;;;;;;16.17;4.57;;;3.20;1.00;;;;;;25769364;22;20027;-42
2023/03/11 22:32:05;;;;;;;6.35;3.83;;;3.20;1.00;;;;;;25763708;22;20081;-42
2023/03/11 22:42:06;;;;;;;9.27;5.20;;;3.10;1.00;;;;;;25783456;22;20130;-42
2023/03/11 22:52:07;;;;;;;5.15;3.80;;;3.10;1.00;;;;;;25793402;23;20099;-42
2023/03/11 23:02:08;;;;;;;5.35;3.65;;;3.20;1.20;;;;;;25783731;23;20016;-42
2023/03/11 23:12:09;;;;;;;7.13;3.13;;;3.30;1.20;;;;;;25763407;23;20090;-42
2023/03/11 23:22:10;;;;;;;4.07;2.03;;;3.30;1.00;;;;;;25769060;22;20549;-42
2023/03/11 23:32:12;;;;;;;5.60;2.47;;;3.40;1.00;;;;;;25771558;23;20361;-42
2023/03/11 23:42:13;;;;;;;3.97;2.53;;;3.50;1.00;;;;;;25763456;23;20369;-42
2023/03/11 23:52:14;;;;;;;6.18;1.83;;;3.60;1.00;;;;;;25757316;23;20168;-42
